createdAt,value
2023-05-03T00:02:02.204Z,3.87
2023-05-03T00:04:54.226Z,3.57
2023-05-03T00:07:43.659Z,3.50
2023-05-03T00:10:30.885Z,3.63
2023-05-03T00:13:17.863Z,3.57
2023-05-03T00:16:05.322Z,3.23
2023-05-03T00:18:52.300Z,3.23
2023-05-03T00:21:39.304Z,3.43
2023-05-03T00:24:27.554Z,4.60
2023-05-03T00:27:14.796Z,3.77
2023-05-03T00:30:02.006Z,3.40
2023-05-03T00:32:49.532Z,3.10
2023-05-03T00:35:36.620Z,3.33
2023-05-03T00:38:23.646Z,3.03
2023-05-03T00:41:11.315Z,3.70
2023-05-03T00:43:58.398Z,3.60
2023-05-03T00:46:45.625Z,3.43
2023-05-03T00:49:33.899Z,2.73
2023-05-03T00:52:20.978Z,3.20
2023-05-03T00:55:09.662Z,3.30
2023-05-03T00:57:57.623Z,3.50
2023-05-03T01:00:44.768Z,3.20
2023-05-03T01:03:32.015Z,3.30
2023-05-03T01:06:37.979Z,5.47
2023-05-03T01:09:31.016Z,3.50
2023-05-03T01:12:49.681Z,3.70
2023-05-03T01:16:04.850Z,3.03
2023-05-03T01:18:55.085Z,3.50
2023-05-03T01:21:47.751Z,4.27
2023-05-03T01:24:38.587Z,3.43
2023-05-03T01:27:25.575Z,3.57
2023-05-03T01:30:13.602Z,3.40
2023-05-03T01:33:42.249Z,3.53
2023-05-03T01:36:34.892Z,3.37
2023-05-03T01:39:29.189Z,3.70
2023-05-03T01:42:16.573Z,3.70
2023-05-03T01:45:04.973Z,3.80
2023-05-03T01:47:52.169Z,3.43
2023-05-03T01:50:39.158Z,3.23
2023-05-03T01:53:26.249Z,4.67
2023-05-03T01:56:13.445Z,4.90
2023-05-03T01:59:00.618Z,4.67
2023-05-03T02:01:47.628Z,5.23
2023-05-03T02:04:34.663Z,4.50
2023-05-03T02:07:21.749Z,5.10
2023-05-03T02:10:11.974Z,4.53
2023-05-03T02:12:59.301Z,4.87
2023-05-03T02:15:46.418Z,4.57
2023-05-03T02:18:33.681Z,4.90
2023-05-03T02:21:20.781Z,4.30
2023-05-03T02:24:07.938Z,4.73
2023-05-03T02:26:55.758Z,3.80
2023-05-03T02:29:42.905Z,4.50
2023-05-03T02:32:30.650Z,4.07
2023-05-03T02:35:17.940Z,3.70
2023-05-03T02:38:05.574Z,5.70
2023-05-03T02:40:52.599Z,4.60
2023-05-03T02:43:39.630Z,4.40
2023-05-03T02:46:26.874Z,4.27
2023-05-03T02:49:13.943Z,3.97
2023-05-03T02:52:00.972Z,4.23
2023-05-03T02:54:49.521Z,3.70
2023-05-03T02:57:36.696Z,4.30
2023-05-03T03:00:25.763Z,4.00
2023-05-03T03:03:12.892Z,3.90
2023-05-03T03:06:00.149Z,4.57
2023-05-03T03:08:48.062Z,4.67
2023-05-03T03:11:35.294Z,5.03
2023-05-03T03:14:22.556Z,4.40
2023-05-03T03:17:09.872Z,4.50
2023-05-03T03:19:58.293Z,4.93
2023-05-03T03:22:47.118Z,5.40
2023-05-03T03:25:34.216Z,5.03
2023-05-03T03:28:21.467Z,4.90
2023-05-03T03:31:09.284Z,5.70
2023-05-03T03:33:56.597Z,5.90
2023-05-03T03:36:47.498Z,4.63
2023-05-03T03:39:35.589Z,5.20
2023-05-03T03:42:24.282Z,5.30
2023-05-03T03:45:12.321Z,4.80
2023-05-03T03:47:59.521Z,5.13
2023-05-03T03:50:47.564Z,5.17
2023-05-03T03:53:35.959Z,5.33
2023-05-03T03:56:23.827Z,5.03
2023-05-03T03:59:12.166Z,4.57
2023-05-03T04:01:59.212Z,4.57
2023-05-03T04:04:47.410Z,4.97
2023-05-03T04:07:37.247Z,5.00
2023-05-03T04:10:24.344Z,5.30
2023-05-03T04:13:11.460Z,4.90
2023-05-03T04:15:59.170Z,5.50
2023-05-03T04:18:46.908Z,4.73
2023-05-03T04:21:34.553Z,5.50
2023-05-03T04:24:22.093Z,5.47
2023-05-03T04:27:10.003Z,5.40
2023-05-03T04:29:59.919Z,4.93
2023-05-03T04:32:47.315Z,5.27
2023-05-03T04:35:36.129Z,5.77
2023-05-03T04:38:28.365Z,5.27
2023-05-03T04:41:17.703Z,6.03
2023-05-03T04:44:06.968Z,5.53
2023-05-03T04:46:54.463Z,6.17
2023-05-03T04:49:42.565Z,5.83
2023-05-03T04:52:29.617Z,6.47
2023-05-03T04:55:17.197Z,7.10
2023-05-03T04:58:05.777Z,6.60
2023-05-03T05:00:54.122Z,6.50
2023-05-03T05:03:49.706Z,6.90
2023-05-03T05:06:41.911Z,7.17
2023-05-03T05:09:32.106Z,6.27
2023-05-03T05:12:21.651Z,6.77
2023-05-03T05:15:09.278Z,6.80
2023-05-03T05:17:56.929Z,7.07
2023-05-03T05:20:44.254Z,6.80
2023-05-03T05:23:31.827Z,7.77
2023-05-03T05:26:18.868Z,7.13
2023-05-03T05:29:06.320Z,7.43
2023-05-03T05:31:53.817Z,7.20
2023-05-03T05:34:45.687Z,6.63
2023-05-03T05:37:36.435Z,7.73
2023-05-03T05:40:26.333Z,7.57
2023-05-03T05:43:16.519Z,7.53
2023-05-03T05:46:06.193Z,7.63
2023-05-03T05:48:53.199Z,8.30
2023-05-03T05:51:41.460Z,7.80
2023-05-03T05:54:30.368Z,7.77
2023-05-03T05:57:18.450Z,8.90
2023-05-03T06:00:14.248Z,7.53
2023-05-03T06:03:01.366Z,8.07
2023-05-03T06:05:49.293Z,8.07
2023-05-03T06:08:36.404Z,8.50
2023-05-03T06:11:23.526Z,7.23
2023-05-03T06:14:11.038Z,8.20
2023-05-03T06:17:00.676Z,7.53
2023-05-03T06:19:49.330Z,7.80
2023-05-03T06:22:36.669Z,7.40
2023-05-03T06:25:23.828Z,7.27
2023-05-03T06:28:11.519Z,8.03
2023-05-03T06:30:59.384Z,8.53
2023-05-03T06:33:48.016Z,8.03
2023-05-03T06:36:36.028Z,8.23
2023-05-03T06:39:23.857Z,8.60
2023-05-03T06:42:11.366Z,8.80
2023-05-03T06:45:00.854Z,8.97
2023-05-03T06:47:47.952Z,8.40
2023-05-03T06:50:35.015Z,8.13
2023-05-03T06:53:22.069Z,8.77
2023-05-03T06:56:09.120Z,9.10
2023-05-03T06:58:56.117Z,8.07
2023-05-03T07:01:43.412Z,9.20
2023-05-03T07:04:30.513Z,8.27
2023-05-03T07:07:17.666Z,9.07
2023-05-03T07:10:05.789Z,9.00
2023-05-03T07:12:52.949Z,9.10
2023-05-03T07:15:39.998Z,8.87
2023-05-03T07:18:27.122Z,8.67
2023-05-03T07:21:14.607Z,8.47
2023-05-03T07:24:01.767Z,8.67
2023-05-03T07:26:49.257Z,9.10
2023-05-03T07:29:36.478Z,8.73
2023-05-03T07:32:23.535Z,8.73
2023-05-03T07:35:10.895Z,9.47
2023-05-03T07:37:57.984Z,10.60
2023-05-03T07:40:45.189Z,8.73
2023-05-03T07:43:32.406Z,8.70
2023-05-03T07:46:19.502Z,9.80
2023-05-03T07:49:06.681Z,8.80
2023-05-03T07:51:53.668Z,8.67
2023-05-03T07:54:42.912Z,9.37
2023-05-03T07:57:29.917Z,9.07
2023-05-03T08:00:17.825Z,9.33
2023-05-03T08:03:06.543Z,8.10
2023-05-03T08:05:53.803Z,8.93
2023-05-03T08:08:42.724Z,9.20
2023-05-03T08:11:29.988Z,9.00
2023-05-03T08:14:17.008Z,7.73
2023-05-03T08:17:06.823Z,8.53
2023-05-03T08:19:56.375Z,8.37
2023-05-03T08:22:45.334Z,8.57
2023-05-03T08:25:32.509Z,7.87
2023-05-03T08:28:19.483Z,8.60
2023-05-03T08:31:07.658Z,7.87
2023-05-03T08:33:54.783Z,7.63
2023-05-03T08:36:41.753Z,7.80
2023-05-03T08:39:31.107Z,8.07
2023-05-03T08:42:18.296Z,7.60
2023-05-03T08:45:08.346Z,8.83
2023-05-03T08:47:55.501Z,7.93
2023-05-03T08:50:42.723Z,8.30
2023-05-03T08:53:30.068Z,8.90
2023-05-03T08:56:27.953Z,8.03
2023-05-03T08:59:17.106Z,8.27
2023-05-03T09:02:04.994Z,8.30
2023-05-03T09:04:52.352Z,8.10
2023-05-03T09:07:39.411Z,7.93
2023-05-03T09:10:26.460Z,7.40
2023-05-03T09:13:13.468Z,8.57
2023-05-03T09:16:02.321Z,7.97
2023-05-03T09:19:00.233Z,7.93
2023-05-03T09:21:47.744Z,8.20
2023-05-03T09:24:34.765Z,7.60
2023-05-03T09:27:24.308Z,8.27
2023-05-03T09:30:19.512Z,7.40
2023-05-03T09:33:06.863Z,7.47
2023-05-03T09:36:02.344Z,7.43
2023-05-03T09:38:50.367Z,8.13
2023-05-03T09:41:37.651Z,7.67
2023-05-03T09:44:51.838Z,8.30
2023-05-03T09:47:51.511Z,8.63
2023-05-03T09:50:38.641Z,7.17
2023-05-03T09:53:27.858Z,7.40
2023-05-03T09:56:15.251Z,8.60
2023-05-03T09:59:03.695Z,8.77
2023-05-03T10:01:55.661Z,8.17
2023-05-03T10:04:51.313Z,8.07
2023-05-03T10:07:42.123Z,7.67
2023-05-03T10:10:32.833Z,7.50
2023-05-03T10:13:22.507Z,6.43
2023-05-03T10:16:15.054Z,7.03
2023-05-03T10:19:27.814Z,7.07
2023-05-03T10:22:14.829Z,6.27
2023-05-03T10:25:02.597Z,7.70
2023-05-03T10:27:52.598Z,6.83
2023-05-03T10:30:40.553Z,6.73
2023-05-03T10:33:33.839Z,5.97
2023-05-03T10:36:22.951Z,6.30
2023-05-03T10:39:14.598Z,5.97
2023-05-03T10:42:08.013Z,5.50
2023-05-03T10:44:55.360Z,4.77
2023-05-03T10:47:42.388Z,5.17
2023-05-03T10:50:29.598Z,4.67
2023-05-03T10:53:35.244Z,4.27
2023-05-03T10:56:22.735Z,4.30
2023-05-03T10:59:09.785Z,4.50
2023-05-03T11:01:56.944Z,4.17
2023-05-03T11:04:48.290Z,5.07
2023-05-03T11:07:35.301Z,5.23
2023-05-03T11:10:22.395Z,5.33
2023-05-03T11:13:09.458Z,5.23
2023-05-03T11:15:56.707Z,4.77
2023-05-03T11:18:43.917Z,4.27
2023-05-03T11:21:32.751Z,4.30
2023-05-03T11:24:19.841Z,4.50
2023-05-03T11:27:08.728Z,4.73
2023-05-03T11:29:58.461Z,4.40
2023-05-03T11:32:45.827Z,4.87
2023-05-03T11:35:32.989Z,4.37
2023-05-03T11:38:20.938Z,4.37
2023-05-03T11:41:18.955Z,3.70
2023-05-03T11:44:16.042Z,4.10
2023-05-03T11:47:06.058Z,3.50
2023-05-03T11:49:57.791Z,3.70
2023-05-03T11:52:45.050Z,4.00
2023-05-03T11:55:32.093Z,4.00
2023-05-03T11:58:20.574Z,4.57
2023-05-03T12:01:08.004Z,5.33
2023-05-03T12:04:01.123Z,4.90
2023-05-03T12:06:52.772Z,4.60
2023-05-03T12:09:43.598Z,4.67
2023-05-03T12:12:33.713Z,4.70
2023-05-03T12:15:37.674Z,5.10
2023-05-03T12:18:25.151Z,5.30
2023-05-03T12:24:06.500Z,4.57
2023-05-03T12:26:53.751Z,4.63
2023-05-03T12:29:41.940Z,4.50
2023-05-03T12:32:29.328Z,4.53
2023-05-03T12:35:19.731Z,3.90
2023-05-03T12:38:09.880Z,3.93
2023-05-03T12:40:57.754Z,3.80
2023-05-03T12:43:44.878Z,3.10
2023-05-03T12:46:34.915Z,3.00
2023-05-03T12:49:23.444Z,3.10
2023-05-03T12:52:36.360Z,4.27
2023-05-03T12:55:19.087Z,4.57
2023-05-03T12:58:36.859Z,4.73
2023-05-03T13:06:59.409Z,4.30
2023-05-03T13:12:54.088Z,5.40
2023-05-03T13:15:41.905Z,5.00
2023-05-03T13:18:28.916Z,7.40
2023-05-03T13:21:16.835Z,11.97
2023-05-03T13:24:04.470Z,6.27
2023-05-03T13:26:51.488Z,4.63
2023-05-03T13:29:39.146Z,3.53
2023-05-03T13:32:26.178Z,4.10
2023-05-03T13:35:13.256Z,4.13
2023-05-03T13:38:00.559Z,4.10
2023-05-03T13:40:47.609Z,6.53
2023-05-03T13:43:35.147Z,4.90
2023-05-03T13:46:23.221Z,4.93
2023-05-03T13:49:11.161Z,4.63
2023-05-03T13:51:58.290Z,4.27
2023-05-03T13:54:45.287Z,3.60
2023-05-03T13:57:32.409Z,4.17
2023-05-03T14:00:20.776Z,4.20
2023-05-03T14:03:08.055Z,4.37
2023-05-03T14:05:55.355Z,4.07
2023-05-03T14:08:42.368Z,3.63
2023-05-03T14:11:30.430Z,3.20
2023-05-03T14:14:17.525Z,2.83
2023-05-03T14:17:04.759Z,3.70
2023-05-03T14:19:52.272Z,3.80
2023-05-03T14:22:39.283Z,3.53
2023-05-03T14:25:27.211Z,3.53
2023-05-03T14:28:14.193Z,3.63
2023-05-03T14:31:01.710Z,3.07
2023-05-03T14:33:48.739Z,3.67
2023-05-03T14:36:38.474Z,3.87
2023-05-03T14:39:25.448Z,3.87
2023-05-03T14:42:12.471Z,3.90
2023-05-03T14:45:00.042Z,4.03
2023-05-03T14:47:47.127Z,3.37
2023-05-03T14:50:34.143Z,3.23
2023-05-03T14:53:22.481Z,2.90
2023-05-03T14:56:09.462Z,3.27
2023-05-03T14:58:56.442Z,3.10
2023-05-03T15:01:43.485Z,2.87
2023-05-03T15:04:30.805Z,3.77
2023-05-03T15:07:17.878Z,3.37
2023-05-03T15:10:05.731Z,3.20
2023-05-03T15:12:52.996Z,3.53
2023-05-03T15:15:42.823Z,4.00
2023-05-03T15:18:29.880Z,2.80
2023-05-03T15:21:19.446Z,3.00
2023-05-03T15:24:06.603Z,3.30
2023-05-03T15:26:53.568Z,2.90
2023-05-03T15:29:40.672Z,3.07
2023-05-03T15:32:27.795Z,3.13
2023-05-03T15:35:15.130Z,3.23
2023-05-03T15:38:02.098Z,3.40
2023-05-03T15:40:49.224Z,3.23
2023-05-03T15:43:36.892Z,2.90
2023-05-03T15:46:23.937Z,3.20
2023-05-03T15:49:11.987Z,3.00
2023-05-03T15:51:58.978Z,3.17
2023-05-03T15:54:46.649Z,2.83
2023-05-03T15:57:33.814Z,2.60
2023-05-03T16:00:23.002Z,3.40
2023-05-03T16:03:10.093Z,3.03
2023-05-03T16:05:57.338Z,2.83
2023-05-03T16:08:45.242Z,3.07
2023-05-03T16:11:32.397Z,3.23
2023-05-03T16:14:19.509Z,3.20
2023-05-03T16:17:06.665Z,3.03
2023-05-03T16:19:53.697Z,3.90
2023-05-03T16:22:40.892Z,4.10
2023-05-03T16:25:28.883Z,4.10
2023-05-03T16:28:16.217Z,4.20
2023-05-03T16:31:03.264Z,4.73
2023-05-03T16:33:50.343Z,3.93
2023-05-03T16:36:42.538Z,3.93
2023-05-03T16:39:29.602Z,3.90
2023-05-03T16:42:18.149Z,3.43
2023-05-03T16:45:07.947Z,3.00
2023-05-03T16:47:55.065Z,3.33
2023-05-03T16:50:43.444Z,3.40
2023-05-03T16:53:31.171Z,3.37
2023-05-03T16:56:18.193Z,3.60
2023-05-03T16:59:05.273Z,3.37
2023-05-03T17:01:52.324Z,3.00
2023-05-03T17:04:39.298Z,2.70
2023-05-03T17:07:26.800Z,2.80
2023-05-03T17:10:13.938Z,2.73
2023-05-03T17:13:01.281Z,3.97
2023-05-03T17:15:48.784Z,2.90
2023-05-03T17:18:37.237Z,3.30
2023-05-03T17:21:24.978Z,2.97
2023-05-03T17:24:12.149Z,3.13
2023-05-03T17:26:59.433Z,2.70
2023-05-03T17:29:46.422Z,2.47
2023-05-03T17:32:33.423Z,3.10
2023-05-03T17:35:20.367Z,2.50
2023-05-03T17:38:07.653Z,2.67
2023-05-03T17:40:54.607Z,2.63
2023-05-03T17:43:41.602Z,3.17
2023-05-03T17:46:29.589Z,3.47
2023-05-03T17:49:17.001Z,3.10
2023-05-03T17:52:04.653Z,3.70
2023-05-03T17:54:56.651Z,3.93
2023-05-03T17:57:44.717Z,3.73
2023-05-03T18:00:32.429Z,5.00
2023-05-03T18:03:19.613Z,6.93
2023-05-03T18:06:09.520Z,4.70
2023-05-03T18:08:57.114Z,4.00
2023-05-03T18:11:45.143Z,5.17
2023-05-03T18:14:35.422Z,3.53
2023-05-03T18:17:22.924Z,3.83
2023-05-03T18:20:10.428Z,5.27
2023-05-03T18:22:57.472Z,5.60
2023-05-03T18:25:46.085Z,4.03
2023-05-03T18:28:33.114Z,3.60
2023-05-03T18:31:21.414Z,3.73
2023-05-03T18:34:08.574Z,3.73
2023-05-03T18:36:55.542Z,4.10
2023-05-03T18:39:42.813Z,4.57
2023-05-03T18:42:31.887Z,4.33
2023-05-03T18:45:20.204Z,4.00
2023-05-03T18:48:08.067Z,4.67
2023-05-03T18:50:55.259Z,7.33
2023-05-03T18:53:43.426Z,5.63
2023-05-03T18:56:31.937Z,4.30
2023-05-03T18:59:18.888Z,4.20
2023-05-03T19:02:07.708Z,6.23
2023-05-03T19:04:55.119Z,5.67
2023-05-03T19:07:46.696Z,4.93
2023-05-03T19:10:33.718Z,4.73
2023-05-03T19:13:20.694Z,5.60
2023-05-03T19:16:08.307Z,4.73
2023-05-03T19:18:56.005Z,4.57
2023-05-03T19:21:43.810Z,5.03
2023-05-03T19:24:31.363Z,4.13
2023-05-03T19:27:18.347Z,4.30
2023-05-03T19:30:06.449Z,5.63
2023-05-03T19:32:53.707Z,4.63
2023-05-03T19:35:40.943Z,4.77
2023-05-03T19:38:27.900Z,4.23
2023-05-03T19:41:14.894Z,4.50
2023-05-03T19:44:01.879Z,4.33
2023-05-03T19:46:49.705Z,4.10
2023-05-03T19:49:37.761Z,3.87
2023-05-03T19:52:24.837Z,3.73
2023-05-03T19:55:11.979Z,4.47
2023-05-03T19:57:59.182Z,3.73
2023-05-03T20:00:46.155Z,3.40
2023-05-03T20:03:33.459Z,3.10
2023-05-03T20:06:22.050Z,3.20
2023-05-03T20:09:09.243Z,3.80
2023-05-03T20:12:00.050Z,3.83
2023-05-03T20:14:47.057Z,3.90
2023-05-03T20:17:35.224Z,4.10
2023-05-03T20:20:22.425Z,3.10
2023-05-03T20:23:09.427Z,3.40
2023-05-03T20:25:56.422Z,3.50
2023-05-03T20:28:43.381Z,3.60
2023-05-03T20:31:31.407Z,6.10
2023-05-03T20:34:18.463Z,4.00
2023-05-03T20:37:05.498Z,3.30
2023-05-03T20:39:52.479Z,3.43
2023-05-03T20:42:39.580Z,2.93
2023-05-03T20:45:27.275Z,4.20
2023-05-03T20:48:14.428Z,3.27
2023-05-03T20:51:01.456Z,3.37
2023-05-03T20:53:48.634Z,3.37
2023-05-03T20:56:35.780Z,3.53
2023-05-03T20:59:22.826Z,3.93
2023-05-03T21:02:10.308Z,5.80
2023-05-03T21:04:57.300Z,2.90
2023-05-03T21:07:44.260Z,3.77
2023-05-03T21:10:31.349Z,3.30
2023-05-03T21:13:18.368Z,3.70
2023-05-03T21:16:07.961Z,3.30
2023-05-03T21:18:54.975Z,4.73
2023-05-03T21:21:42.224Z,3.87
2023-05-03T21:24:30.963Z,3.50
2023-05-03T21:27:19.296Z,3.30
2023-05-03T21:30:07.224Z,3.37
2023-05-03T21:32:54.426Z,3.20
2023-05-03T21:35:41.664Z,3.77
2023-05-03T21:38:28.654Z,3.73
2023-05-03T21:41:15.611Z,3.73
2023-05-03T21:44:02.573Z,3.70
2023-05-03T21:46:49.553Z,3.07
2023-05-03T21:49:36.521Z,3.70
2023-05-03T21:52:23.819Z,3.07
2023-05-03T21:55:10.843Z,4.50
2023-05-03T21:57:57.831Z,3.77
2023-05-03T22:00:44.802Z,3.70
2023-05-03T22:03:31.950Z,3.77
2023-05-03T22:06:19.116Z,3.40
2023-05-03T22:09:06.943Z,4.00
2023-05-03T22:11:53.900Z,3.43
2023-05-03T22:14:41.211Z,3.47
2023-05-03T22:17:28.280Z,3.57
2023-05-03T22:20:15.416Z,6.50
2023-05-03T22:23:02.754Z,3.50
2023-05-03T22:25:49.736Z,4.07
2023-05-03T22:28:36.835Z,4.00
2023-05-03T22:31:24.729Z,3.67
2023-05-03T22:34:11.817Z,5.27
2023-05-03T22:36:58.853Z,3.63
2023-05-03T22:39:45.780Z,4.27
2023-05-03T22:42:33.196Z,4.63
2023-05-03T22:45:20.600Z,5.17
2023-05-03T22:48:07.620Z,3.80
2023-05-03T22:50:54.754Z,4.20
2023-05-03T22:53:41.922Z,3.80
2023-05-03T22:56:29.062Z,3.83
2023-05-03T22:59:16.271Z,3.53
2023-05-03T23:02:03.244Z,3.67
2023-05-03T23:04:50.218Z,4.17
2023-05-03T23:07:37.238Z,5.10
2023-05-03T23:10:24.736Z,4.70
2023-05-03T23:13:12.215Z,4.37
2023-05-03T23:15:59.249Z,4.63
2023-05-03T23:18:46.471Z,3.90
2023-05-03T23:21:33.828Z,3.90
2023-05-03T23:24:20.823Z,3.87
2023-05-03T23:27:08.122Z,3.93
2023-05-03T23:29:55.587Z,4.67
2023-05-03T23:32:43.207Z,4.20
2023-05-03T23:35:30.544Z,4.97
2023-05-03T23:38:17.585Z,3.87
2023-05-03T23:41:04.639Z,3.90
2023-05-03T23:43:51.895Z,3.70
2023-05-03T23:46:39.595Z,3.70
2023-05-03T23:49:26.663Z,4.43
2023-05-03T23:52:13.633Z,4.00
2023-05-03T23:55:00.722Z,4.23
2023-05-03T23:57:47.713Z,3.73
